»·PEaware :: N51SC KAVX-KSAN

N51SC :: KAVX-KSAN

FLIGHT INFORMATION

Flight Status: Arrived
Operator: Privately registered:
United States
More flights under this callsign
Pilot: Chris C. (10181)
Aircraft: CESSNA 510 CITATION MUSTANG
(C510)
More flights by this aircraft type
Origin: KAVX Catalina
United States
Destination: KSAN San Diego Intl-Lindbergh
United States
More flights between these airports :: More routes between these airports
Route: +SXC V208 LAX118 CARDI MZB320 MZB
File this flight plan on PilotEdge
Remarks: I-08 Exam
Altitude:
(Current/Filed)
11,000ft
Speed:
(Current/Filed)
300kts
Departed: 14-May-16 12:10 PM
Arrived: 14-May-16 12:43 PM
Distance/Time
Traveled:
74nm/0:32
Distance/Time
To Go:
Arrived

Flight Plot

Page will automatically refresh every two minutes.


Map Options




Map Legend


Flown Route
Filed Route
Departure Airport
Arrival Airport
Navaid (VOR, NDB)
Fix

Horizontal Profiles

Position Reports

Time Latitude Longitude Heading Altitude Ground
Speed
14-May-16 11:49 33.403577 -118.415738 144 1604ft 0kts
14-May-16 11:50 33.403577 -118.415737 144 1604ft 0kts
14-May-16 11:51 33.403577 -118.415737 144 1604ft 0kts
14-May-16 11:52 33.403576 -118.415737 144 1604ft 0kts
14-May-16 11:53 33.403576 -118.415737 144 1604ft 0kts
14-May-16 11:54 33.403576 -118.415737 144 1604ft 0kts
14-May-16 11:55 33.403576 -118.415737 144 1604ft 0kts
14-May-16 11:56 33.403576 -118.415736 144 1604ft 0kts
14-May-16 11:57 33.403575 -118.415736 144 1604ft 0kts
14-May-16 11:58 33.403575 -118.415736 144 1604ft 0kts
14-May-16 11:59 33.403575 -118.415736 144 1604ft 0kts
14-May-16 12:00 33.403575 -118.415736 144 1604ft 0kts
14-May-16 12:01 33.403574 -118.415735 144 1604ft 0kts
14-May-16 12:02 33.403574 -118.415735 144 1604ft 0kts
14-May-16 12:03 33.403574 -118.415735 144 1604ft 0kts
14-May-16 12:04 33.403551 -118.415706 122 1604ft 2kts
14-May-16 12:05 33.404969 -118.415041 30 1604ft 9kts
14-May-16 12:06 33.406973 -118.411774 53 1604ft 6kts
14-May-16 12:07 33.407052 -118.411661 43 1604ft 0kts
14-May-16 12:08 33.407349 -118.411659 291 1604ft 3kts
14-May-16 12:09 33.398895 -118.426159 236 2082ft 105kts
14-May-16 12:10 33.372235 -118.440060 152 3959ft 163kts
14-May-16 12:11 33.338170 -118.377284 97 3947ft 260kts
14-May-16 12:12 33.341745 -118.290318 79 4395ft 262kts
14-May-16 12:13 33.346121 -118.203383 96 6044ft 258kts
14-May-16 12:14 33.335542 -118.117548 98 8051ft 259kts
14-May-16 12:15 33.324478 -118.034163 100 10045ft 247kts
14-May-16 12:16 33.312927 -117.948382 100 10956ft 279kts
14-May-16 12:17 33.300056 -117.852816 100 10990ft 288kts
14-May-16 12:18 33.287260 -117.757940 101 10992ft 288kts
14-May-16 12:19 33.273293 -117.663483 102 10995ft 288kts
14-May-16 12:20 33.228853 -117.591786 152 10306ft 280kts
14-May-16 12:21 33.171191 -117.555203 150 9470ft 281kts
14-May-16 12:22 33.105442 -117.504844 145 8468ft 278kts
14-May-16 12:23 33.032274 -117.442613 144 7299ft 275kts
14-May-16 12:24 32.970996 -117.389370 144 7000ft 272kts
14-May-16 12:25 32.920509 -117.345463 144 6999ft 273kts
14-May-16 12:26 32.885693 -117.273432 95 7000ft 250kts
14-May-16 12:27 32.874227 -117.195262 103 6885ft 232kts
14-May-16 12:28 32.860650 -117.121271 102 5879ft 228kts
14-May-16 12:29 32.847670 -117.047070 102 5050ft 227kts
14-May-16 12:30 32.834978 -116.973973 102 5004ft 229kts
14-May-16 12:31 32.822092 -116.899905 102 4999ft 231kts
14-May-16 12:32 32.809055 -116.826280 107 4986ft 224kts
14-May-16 12:33 32.756202 -116.804504 189 4992ft 233kts
14-May-16 12:34 32.701788 -116.833710 241 4994ft 214kts
14-May-16 12:35 32.682403 -116.900929 252 4642ft 219kts
14-May-16 12:36 32.680227 -116.970700 281 3956ft 209kts
14-May-16 12:37 32.695141 -117.031927 285 2871ft 175kts
14-May-16 12:38 32.707216 -117.079527 285 2261ft 120kts
14-May-16 12:39 32.716377 -117.116350 282 1487ft 115kts
14-May-16 12:40 32.724221 -117.150817 283 663ft 100kts
14-May-16 12:41 32.731426 -117.180668 282 21ft 72kts
14-May-16 12:42 32.733896 -117.188037 8 17ft 3kts

Navigation Log

Ident Type
Flight plan parsing failed, navigation log unavailable